Time;durP1;ratioP1;P1;durP2;ratioP2;P2;SDS_P1;SDS_P2;PMS_P1;PMS_P2;Temp;Humidity;BMP_temperature;BMP_pressure;BME280_temperature;BME280_humidity;BME280_pressure;Samples;Min_cycle;Max_cycle;Signal;HPM_P1;HPM_P2
2022/08/08 00:01:12;;;;;;;0.90;0.90;;;23.40;1.00;;;;;;5062624;28;20472;-85
2022/08/08 00:03:49;;;;;;;1.83;0.90;;;23.40;1.00;;;;;;5068394;28;20493;-83
2022/08/08 00:06:36;;;;;;;1.10;1.00;;;23.30;1.00;;;;;;5061957;28;20454;-84
2022/08/08 00:09:12;;;;;;;1.23;0.90;;;23.30;1.00;;;;;;5067264;28;20444;-85
2022/08/08 00:11:47;;;;;;;1.00;1.00;;;23.20;1.00;;;;;;5066922;28;20481;-85
2022/08/08 00:14:51;;;;;;;1.30;1.20;;;23.20;1.00;;;;;;5065895;28;20526;-84
2022/08/08 00:17:37;;;;;;;1.10;1.00;;;23.20;1.00;;;;;;5064151;28;20445;-84
2022/08/08 00:20:35;;;;;;;1.00;0.90;;;23.20;1.00;;;;;;5067281;28;21035;-83
2022/08/08 00:23:07;;;;;;;1.10;1.00;;;23.10;1.00;;;;;;5064726;28;20481;-83
2022/08/08 00:25:39;;;;;;;1.30;1.00;;;23.10;1.00;;;;;;5060844;28;20457;-84
2022/08/08 00:28:23;;;;;;;1.43;0.90;;;23.00;1.00;;;;;;5067394;28;20457;-84
2022/08/08 00:31:14;;;;;;;1.10;0.90;;;23.00;1.00;;;;;;5065879;28;20470;-84
2022/08/08 00:37:12;;;;;;;1.03;0.90;;;22.90;1.00;;;;;;5064438;28;20825;-84
2022/08/08 00:40:23;;;;;;;1.47;1.37;;;22.90;1.00;;;;;;5067532;28;20475;-84
2022/08/08 00:43:58;;;;;;;1.60;1.50;;;23.00;1.00;;;;;;5062863;28;20477;-85
2022/08/08 00:46:56;;;;;;;0.80;0.80;;;23.00;4.90;;;;;;5006766;28;20589;-85
2022/08/08 00:49:47;;;;;;;1.30;1.10;;;23.10;1.00;;;;;;5068068;28;20901;-85
2022/08/08 00:52:46;;;;;;;0.97;0.93;;;23.10;1.00;;;;;;5064473;28;20458;-82
2022/08/08 00:55:41;;;;;;;1.10;1.00;;;23.00;1.00;;;;;;5059321;28;20548;-82
2022/08/08 00:59:12;;;;;;;3.40;0.93;;;22.90;1.00;;;;;;5068563;28;21371;-81
2022/08/08 01:02:02;;;;;;;1.33;1.00;;;22.90;1.00;;;;;;5065511;28;21010;-83
2022/08/08 01:05:21;;;;;;;0.80;0.80;;;22.80;1.00;;;;;;5062984;28;20444;-83
2022/08/08 01:08:47;;;;;;;0.80;0.80;;;22.70;1.00;;;;;;5062133;28;20447;-84
2022/08/08 01:11:56;;;;;;;0.93;0.93;;;22.70;1.00;;;;;;5061792;28;20480;-83
2022/08/08 01:15:03;;;;;;;1.13;0.80;;;22.60;1.00;;;;;;5065444;28;21356;-83
2022/08/08 01:18:09;;;;;;;1.00;1.00;;;22.60;1.00;;;;;;5063520;28;20459;-83
2022/08/08 01:21:09;;;;;;;0.93;0.90;;;22.50;1.00;;;;;;5061648;28;20483;-84
2022/08/08 01:24:23;;;;;;;0.93;0.90;;;22.50;1.00;;;;;;5063542;28;20462;-84
2022/08/08 01:27:25;;;;;;;1.00;1.00;;;22.50;1.00;;;;;;5047072;28;20512;-83
2022/08/08 01:30:50;;;;;;;1.30;1.00;;;22.40;1.00;;;;;;5050611;28;20514;-83
2022/08/08 01:34:06;;;;;;;1.00;0.90;;;22.40;1.00;;;;;;5064736;28;21575;-83
2022/08/08 01:37:07;;;;;;;0.83;0.83;;;22.40;1.00;;;;;;5068529;28;20970;-84
2022/08/08 01:39:59;;;;;;;1.30;1.20;;;22.50;1.00;;;;;;5071559;28;20450;-83
2022/08/08 01:42:35;;;;;;;1.50;1.40;;;22.50;1.00;;;;;;5069041;28;20550;-83
2022/08/08 01:45:20;;;;;;;2.53;1.10;;;22.50;1.00;;;;;;5069117;28;20504;-83
2022/08/08 01:48:11;;;;;;;1.40;1.07;;;22.50;1.00;;;;;;5066263;28;20454;-85
2022/08/08 01:51:21;;;;;;;1.13;1.00;;;22.50;1.00;;;;;;5067623;28;20472;-83
2022/08/08 01:54:18;;;;;;;1.10;1.00;;;22.40;1.00;;;;;;5067781;28;20507;-85
2022/08/08 01:57:20;;;;;;;1.60;0.90;;;22.30;1.00;;;;;;5069187;28;20454;-82
2022/08/08 02:00:11;;;;;;;0.90;0.90;;;22.30;1.00;;;;;;5068055;28;20540;-84
2022/08/08 02:03:12;;;;;;;1.13;1.03;;;22.30;1.00;;;;;;5060743;28;20452;-83
2022/08/08 02:06:13;;;;;;;1.57;1.10;;;22.30;1.00;;;;;;5056681;28;20455;-83
2022/08/08 02:09:06;;;;;;;1.00;1.00;;;22.20;1.00;;;;;;5067837;28;20534;-83
2022/08/08 02:11:46;;;;;;;1.07;1.07;;;22.20;1.00;;;;;;5070139;28;20548;-83
2022/08/08 02:14:33;;;;;;;1.17;1.13;;;22.10;1.00;;;;;;5063744;28;20502;-83
2022/08/08 02:17:26;;;;;;;1.77;1.67;;;22.10;1.00;;;;;;5063340;28;20514;-82
2022/08/08 02:20:16;;;;;;;1.10;1.10;;;22.10;1.00;;;;;;5063121;28;20502;-82
2022/08/08 02:23:13;;;;;;;1.03;1.03;;;22.10;1.00;;;;;;5069230;28;20457;-81
2022/08/08 02:25:52;;;;;;;0.80;0.80;;;22.10;1.00;;;;;;5066993;28;20442;-82
2022/08/08 02:28:38;;;;;;;1.00;0.90;;;22.10;1.00;;;;;;5072164;28;20455;-82
2022/08/08 02:31:20;;;;;;;0.90;0.90;;;22.10;1.00;;;;;;5071610;28;21138;-82
2022/08/08 02:34:16;;;;;;;0.93;0.80;;;22.00;1.00;;;;;;5064399;28;20498;-82
2022/08/08 02:37:09;;;;;;;1.10;1.00;;;21.90;1.00;;;;;;5067481;28;20459;-82
2022/08/08 02:40:08;;;;;;;1.20;1.10;;;21.90;1.00;;;;;;5065480;28;20469;-81
2022/08/08 02:43:04;;;;;;;1.23;0.83;;;21.90;1.00;;;;;;5070794;28;20450;-82
2022/08/08 02:46:15;;;;;;;0.80;0.80;;;21.80;1.00;;;;;;5071806;28;20554;-82
2022/08/08 02:49:25;;;;;;;1.17;0.80;;;21.70;1.00;;;;;;5067808;28;20450;-82
2022/08/08 02:52:44;;;;;;;0.90;0.80;;;21.70;1.00;;;;;;5069223;28;20434;-82
2022/08/08 02:56:04;;;;;;;1.03;0.87;;;21.70;1.00;;;;;;5061366;28;20506;-82
2022/08/08 02:59:14;;;;;;;0.80;0.80;;;21.60;1.00;;;;;;5064462;28;20577;-81
2022/08/08 03:02:28;;;;;;;1.03;0.90;;;21.50;1.00;;;;;;5018248;28;20484;-82
2022/08/08 03:05:34;;;;;;;1.10;1.00;;;21.60;1.00;;;;;;5065818;28;20443;-82
2022/08/08 03:08:47;;;;;;;1.10;1.00;;;21.60;1.00;;;;;;5060536;28;20459;-82
2022/08/08 03:11:54;;;;;;;1.23;0.90;;;21.50;1.00;;;;;;5066979;28;20488;-83
2022/08/08 03:14:56;;;;;;;1.40;1.30;;;21.50;1.00;;;;;;5066837;28;20466;-83
2022/08/08 03:17:50;;;;;;;1.27;1.17;;;21.40;1.00;;;;;;5057846;28;20463;-83
2022/08/08 03:20:43;;;;;;;1.00;1.00;;;21.40;1.00;;;;;;5067242;28;21043;-82
2022/08/08 03:23:20;;;;;;;1.40;0.93;;;21.40;1.00;;;;;;5066407;28;20496;-81
2022/08/08 03:25:51;;;;;;;1.23;0.80;;;21.40;1.00;;;;;;5068067;28;20447;-83
2022/08/08 03:28:27;;;;;;;1.00;1.00;;;21.30;1.00;;;;;;5070446;28;20460;-83
2022/08/08 03:30:56;;;;;;;1.40;1.20;;;21.30;1.00;;;;;;5069878;28;20505;-82
2022/08/08 03:33:44;;;;;;;0.77;0.77;;;21.30;1.00;;;;;;5066763;28;20458;-82
2022/08/08 03:36:27;;;;;;;1.13;1.00;;;21.30;1.00;;;;;;5058665;28;20492;-82
2022/08/08 03:39:00;;;;;;;1.20;1.10;;;21.30;1.00;;;;;;5070051;28;20970;-83
2022/08/08 03:41:44;;;;;;;1.03;1.03;;;21.30;1.00;;;;;;5066720;28;21245;-82
2022/08/08 03:44:33;;;;;;;1.00;0.90;;;21.30;1.00;;;;;;5067205;28;20480;-83
2022/08/08 03:47:02;;;;;;;1.03;1.00;;;21.30;1.00;;;;;;5066150;28;20827;-82
2022/08/08 03:49:48;;;;;;;1.00;1.00;;;21.30;1.00;;;;;;5068095;28;20910;-82
2022/08/08 03:52:30;;;;;;;1.13;1.03;;;21.30;1.00;;;;;;5061684;28;21197;-81
2022/08/08 03:55:09;;;;;;;1.70;1.60;;;21.30;1.00;;;;;;5066296;28;20462;-82
2022/08/08 03:57:58;;;;;;;1.33;1.00;;;21.30;1.00;;;;;;5065750;28;20454;-81
2022/08/08 04:00:51;;;;;;;1.00;0.90;;;21.30;1.00;;;;;;5058024;28;20462;-82
2022/08/08 04:03:39;;;;;;;1.10;1.00;;;21.20;1.00;;;;;;5062951;28;20584;-82
2022/08/08 04:06:29;;;;;;;1.30;1.20;;;21.20;1.00;;;;;;5058309;28;20439;-82
2022/08/08 04:08:58;;;;;;;1.30;1.20;;;21.10;1.00;;;;;;5062850;28;20442;-81
2022/08/08 04:11:43;;;;;;;0.87;0.83;;;21.10;1.00;;;;;;5095059;28;20486;-83
2022/08/08 04:14:27;;;;;;;1.13;1.03;;;21.10;1.00;;;;;;5064028;28;20573;-83
2022/08/08 04:17:04;;;;;;;1.20;1.10;;;21.00;1.00;;;;;;5063433;28;20457;-83
2022/08/08 04:19:42;;;;;;;1.03;1.03;;;21.00;1.00;;;;;;5060049;28;20504;-84
2022/08/08 04:22:13;;;;;;;1.10;1.10;;;21.00;1.00;;;;;;5068815;28;21000;-85
2022/08/08 04:24:43;;;;;;;1.87;1.20;;;21.00;1.00;;;;;;5065358;28;20439;-85
2022/08/08 04:27:19;;;;;;;1.50;1.40;;;20.90;1.00;;;;;;5058065;28;20775;-84
2022/08/08 04:30:08;;;;;;;1.40;0.93;;;20.90;1.00;;;;;;5073390;28;20817;-84
2022/08/08 04:32:46;;;;;;;1.33;1.00;;;20.90;1.00;;;;;;5065485;28;20465;-85
2022/08/08 04:35:18;;;;;;;1.40;1.10;;;20.80;1.00;;;;;;5064987;28;20466;-84
2022/08/08 04:37:49;;;;;;;1.00;1.00;;;20.80;1.00;;;;;;5069287;28;20942;-84
2022/08/08 04:40:19;;;;;;;0.90;0.90;;;20.90;1.00;;;;;;5066615;28;20757;-83
2022/08/08 04:42:52;;;;;;;1.30;1.20;;;20.90;1.00;;;;;;5060401;28;20458;-83
2022/08/08 04:45:25;;;;;;;2.10;0.90;;;20.90;1.00;;;;;;5062022;28;20476;-84
2022/08/08 04:47:55;;;;;;;0.93;0.90;;;20.90;1.00;;;;;;5060585;28;20823;-84
2022/08/08 04:50:24;;;;;;;0.90;0.90;;;20.90;1.00;;;;;;5066381;28;20481;-84
2022/08/08 04:53:04;;;;;;;0.90;0.90;;;20.90;1.00;;;;;;5066785;28;20462;-84
2022/08/08 04:55:52;;;;;;;1.23;1.10;;;20.90;1.00;;;;;;5062334;28;20476;-83
2022/08/08 04:58:25;;;;;;;1.07;1.00;;;20.90;1.00;;;;;;5066258;28;20482;-83
2022/08/08 05:00:53;;;;;;;1.00;1.00;;;20.90;1.00;;;;;;5064052;28;20471;-82
2022/08/08 05:03:21;;;;;;;2.50;0.93;;;20.90;1.00;;;;;;5060272;28;20442;-82
2022/08/08 05:06:10;;;;;;;0.80;0.80;;;20.90;1.00;;;;;;5066169;28;20530;-81
2022/08/08 05:08:41;;;;;;;1.30;1.00;;;20.90;1.00;;;;;;5065984;28;20497;-68
2022/08/08 05:11:12;;;;;;;0.90;0.90;;;20.80;1.00;;;;;;5064657;28;20522;-69
2022/08/08 05:13:50;;;;;;;1.67;1.13;;;20.60;1.00;;;;;;5066140;28;21010;-70
2022/08/08 05:16:29;;;;;;;1.40;1.10;;;20.50;1.00;;;;;;5062752;28;20478;-69
2022/08/08 05:19:17;;;;;;;0.97;0.90;;;20.40;1.00;;;;;;5063092;28;20533;-68
2022/08/08 05:22:07;;;;;;;1.30;1.10;;;20.40;1.00;;;;;;5064721;28;20539;-69
2022/08/08 05:24:35;;;;;;;1.47;1.00;;;20.50;1.00;;;;;;5065279;28;20533;-69
2022/08/08 05:27:05;;;;;;;1.03;1.00;;;20.60;1.00;;;;;;5069423;28;20481;-69
2022/08/08 05:29:35;;;;;;;1.00;0.90;;;20.70;1.00;;;;;;5070140;28;20434;-68
2022/08/08 05:32:05;;;;;;;1.20;1.10;;;20.70;1.00;;;;;;5070462;28;20466;-69
2022/08/08 05:34:36;;;;;;;1.53;1.07;;;20.60;1.00;;;;;;5068128;28;20443;-70
2022/08/08 05:37:05;;;;;;;0.87;0.87;;;20.80;1.00;;;;;;5069842;28;20470;-69
2022/08/08 05:39:49;;;;;;;1.40;1.30;;;20.70;1.00;;;;;;5069003;28;21037;-71
2022/08/08 05:42:26;;;;;;;2.70;1.13;;;20.70;1.00;;;;;;5070318;28;20705;-69
2022/08/08 05:45:01;;;;;;;1.50;1.40;;;20.80;1.00;;;;;;5069999;28;20477;-69
2022/08/08 05:47:51;;;;;;;1.20;1.10;;;20.70;1.00;;;;;;5070006;28;20449;-70
2022/08/08 05:50:29;;;;;;;1.10;1.00;;;20.90;1.00;;;;;;5069652;28;20477;-69
2022/08/08 05:53:00;;;;;;;1.37;1.10;;;21.00;1.00;;;;;;5070045;28;20474;-69
2022/08/08 05:55:49;;;;;;;1.40;1.30;;;21.00;1.00;;;;;;5072602;28;20478;-69
2022/08/08 05:58:41;;;;;;;1.90;1.07;;;21.00;1.00;;;;;;5069519;28;20480;-68
2022/08/08 06:01:27;;;;;;;1.43;1.27;;;21.20;1.00;;;;;;5069704;28;20474;-69
2022/08/08 06:04:19;;;;;;;1.40;1.23;;;21.40;1.00;;;;;;5062861;28;20507;-69
2022/08/08 06:06:52;;;;;;;1.10;1.10;;;21.50;1.00;;;;;;5078310;28;20450;-70
2022/08/08 06:09:27;;;;;;;2.73;1.20;;;21.50;1.00;;;;;;5069461;28;20449;-68
2022/08/08 06:12:17;;;;;;;1.20;1.10;;;21.50;1.00;;;;;;5064434;28;20458;-70
2022/08/08 06:15:00;;;;;;;1.50;1.40;;;21.60;1.00;;;;;;5067962;28;20457;-69
2022/08/08 06:17:32;;;;;;;1.40;1.30;;;21.70;1.00;;;;;;5068766;28;20478;-68
2022/08/08 06:20:21;;;;;;;2.00;1.17;;;21.70;1.00;;;;;;5060828;28;20907;-69
2022/08/08 06:22:53;;;;;;;1.60;1.50;;;21.70;1.00;;;;;;5064313;28;20547;-69
2022/08/08 06:25:23;;;;;;;1.40;1.30;;;21.80;1.00;;;;;;5061983;28;20459;-69
2022/08/08 06:28:15;;;;;;;2.70;1.00;;;21.90;1.00;;;;;;5064821;28;20525;-70
2022/08/08 06:30:48;;;;;;;1.20;1.10;;;22.10;1.00;;;;;;5068210;28;20457;-68
2022/08/08 06:33:24;;;;;;;1.30;1.20;;;22.20;2.00;;;;;;5068961;28;20449;-68
2022/08/08 06:36:20;;;;;;;2.43;1.40;;;22.30;2.70;;;;;;5064427;28;20994;-68
2022/08/08 06:38:55;;;;;;;1.40;1.20;;;22.30;2.30;;;;;;5068234;28;20456;-68
2022/08/08 06:41:27;;;;;;;1.20;1.10;;;22.40;3.30;;;;;;5068379;28;20468;-68
2022/08/08 06:44:03;;;;;;;1.67;1.20;;;22.50;5.80;;;;;;5067717;28;21119;-67
2022/08/08 06:46:39;;;;;;;1.97;1.10;;;22.80;7.70;;;;;;5064408;28;20455;-68
2022/08/08 06:49:09;;;;;;;1.63;1.10;;;23.00;10.00;;;;;;5069613;28;20563;-67
2022/08/08 06:51:38;;;;;;;1.40;1.27;;;23.20;11.20;;;;;;5066288;28;20487;-68
2022/08/08 06:54:26;;;;;;;1.30;1.20;;;23.30;12.40;;;;;;5061828;28;21205;-68
2022/08/08 06:56:54;;;;;;;2.47;1.20;;;23.50;12.90;;;;;;5062075;28;21011;-68
2022/08/08 06:59:23;;;;;;;1.30;1.07;;;23.60;14.70;;;;;;5065753;28;20454;-69
2022/08/08 07:02:00;;;;;;;1.17;1.10;;;23.80;15.50;;;;;;5062936;28;20465;-68
2022/08/08 07:04:54;;;;;;;1.13;1.03;;;24.00;16.90;;;;;;5069095;28;20456;-68
2022/08/08 07:07:34;;;;;;;1.55;1.20;;;24.20;17.30;;;;;;5062840;28;20513;-78
2022/08/08 07:10:06;;;;;;;1.40;1.30;;;24.40;18.80;;;;;;5061965;28;20192;-78
2022/08/08 07:12:40;;;;;;;1.63;1.00;;;24.50;20.00;;;;;;5069166;28;21055;-77
2022/08/08 07:15:12;;;;;;;1.50;1.17;;;24.60;22.10;;;;;;5066848;28;20450;-78
2022/08/08 07:18:04;;;;;;;2.93;1.27;;;24.80;24.50;;;;;;5066590;28;20495;-77
2022/08/08 07:20:59;;;;;;;1.63;1.53;;;24.90;26.80;;;;;;5064332;28;20501;-78
2022/08/08 07:23:38;;;;;;;1.40;1.27;;;25.00;27.90;;;;;;5067871;28;20464;-78
2022/08/08 07:26:31;;;;;;;1.80;1.20;;;25.10;29.20;;;;;;5064424;28;20459;-79
2022/08/08 07:29:05;;;;;;;2.37;1.60;;;25.10;28.80;;;;;;5076253;28;20464;-78
2022/08/08 07:31:47;;;;;;;1.50;1.40;;;25.20;29.80;;;;;;5069842;28;20471;-77
2022/08/08 07:34:17;;;;;;;3.87;1.47;;;25.30;32.30;;;;;;5061767;28;20975;-79
2022/08/08 07:37:03;;;;;;;4.20;2.13;;;24.90;31.30;;;;;;5074832;28;20481;-78
2022/08/08 07:39:42;;;;;;;1.57;1.47;;;25.50;31.70;;;;;;5065577;28;20456;-77
2022/08/08 07:42:25;;;;;;;1.87;1.63;;;25.50;31.40;;;;;;5061150;28;20491;-78
2022/08/08 07:45:01;;;;;;;1.50;1.40;;;25.50;32.60;;;;;;5071081;28;20469;-77
2022/08/08 07:47:30;;;;;;;1.60;1.50;;;25.50;34.30;;;;;;5062958;28;20530;-77
2022/08/08 07:50:07;;;;;;;2.13;2.03;;;25.50;32.80;;;;;;5061644;28;20482;-78
2022/08/08 07:52:39;;;;;;;1.50;1.40;;;25.60;31.20;;;;;;5067102;28;20529;-77
2022/08/08 07:55:19;;;;;;;1.80;1.70;;;25.50;32.10;;;;;;5066217;28;20462;-78
2022/08/08 07:58:07;;;;;;;1.70;1.60;;;25.60;33.00;;;;;;5068351;28;20482;-79
2022/08/08 08:00:44;;;;;;;1.53;1.43;;;25.70;32.60;;;;;;5066475;28;20491;-78
2022/08/08 08:03:22;;;;;;;1.83;1.73;;;25.70;33.00;;;;;;5101502;27;20448;-78
2022/08/08 08:05:56;;;;;;;2.23;1.60;;;25.70;33.00;;;;;;5068075;28;20453;-78
2022/08/08 08:08:27;;;;;;;1.63;1.43;;;25.70;32.10;;;;;;5064215;28;20446;-77
2022/08/08 08:10:57;;;;;;;2.07;1.50;;;25.70;32.90;;;;;;5059525;28;20478;-78
2022/08/08 08:13:34;;;;;;;1.40;1.30;;;25.70;34.10;;;;;;5067814;28;20451;-77
2022/08/08 08:16:25;;;;;;;1.43;1.30;;;25.70;33.80;;;;;;5066853;28;20451;-79
2022/08/08 08:18:57;;;;;;;1.67;1.57;;;25.80;34.90;;;;;;5066274;28;20597;-78
2022/08/08 08:21:28;;;;;;;1.90;1.40;;;25.80;34.80;;;;;;5068949;28;20576;-79
2022/08/08 08:24:14;;;;;;;3.03;1.93;;;25.80;34.10;;;;;;5064653;28;20461;-79
2022/08/08 08:26:42;;;;;;;2.00;1.50;;;25.90;35.70;;;;;;5067782;28;20459;-78
2022/08/08 08:29:19;;;;;;;2.07;1.47;;;25.90;36.30;;;;;;5066728;28;20465;-78
2022/08/08 08:31:48;;;;;;;3.53;1.47;;;25.90;35.60;;;;;;5065238;28;20471;-78
2022/08/08 08:34:26;;;;;;;1.27;1.17;;;25.90;35.30;;;;;;5060367;28;20916;-78
2022/08/08 08:37:00;;;;;;;2.93;1.43;;;25.90;34.80;;;;;;5061875;28;20450;-77
2022/08/08 08:39:36;;;;;;;1.73;1.40;;;26.00;34.80;;;;;;5062275;28;20527;-78
2022/08/08 08:42:25;;;;;;;1.60;1.50;;;26.00;34.70;;;;;;5064526;28;20477;-78
2022/08/08 08:45:05;;;;;;;1.80;1.70;;;26.00;32.90;;;;;;5059847;28;20466;-77
2022/08/08 08:47:51;;;;;;;2.17;1.40;;;26.00;33.20;;;;;;5100393;27;20462;-77
2022/08/08 08:50:21;;;;;;;2.53;1.50;;;26.00;33.50;;;;;;5066381;28;20482;-77
2022/08/08 08:53:05;;;;;;;2.43;1.60;;;26.00;34.40;;;;;;5063398;28;20692;-77
2022/08/08 08:55:57;;;;;;;1.90;1.80;;;26.10;34.30;;;;;;5066245;28;20446;-77
2022/08/08 08:58:34;;;;;;;4.10;1.47;;;26.10;33.80;;;;;;5063885;28;20478;-77
2022/08/08 09:01:06;;;;;;;1.50;1.40;;;26.10;34.50;;;;;;5068186;28;21080;-78
2022/08/08 09:03:41;;;;;;;1.30;1.20;;;26.20;35.90;;;;;;5065528;28;20574;-77
2022/08/08 09:06:21;;;;;;;1.40;1.30;;;26.20;35.80;;;;;;5067756;28;20450;-77
2022/08/08 09:09:01;;;;;;;1.50;1.30;;;26.20;35.70;;;;;;5067107;28;20445;-79
2022/08/08 09:11:34;;;;;;;1.33;1.23;;;26.20;36.10;;;;;;5064404;28;20607;-77
2022/08/08 09:14:16;;;;;;;1.53;1.43;;;26.30;35.50;;;;;;5054726;28;20449;-77
2022/08/08 09:16:46;;;;;;;1.30;1.20;;;26.30;35.70;;;;;;5067013;28;20545;-77
2022/08/08 09:19:17;;;;;;;1.50;1.40;;;26.30;36.60;;;;;;5067890;28;20482;-77
2022/08/08 09:22:07;;;;;;;1.20;1.17;;;26.40;37.50;;;;;;5067270;28;20840;-79
2022/08/08 09:24:37;;;;;;;1.53;1.30;;;26.40;35.50;;;;;;5070047;28;21048;-78
2022/08/08 09:27:09;;;;;;;1.47;1.27;;;26.40;33.20;;;;;;5065292;28;20516;-78
2022/08/08 09:30:02;;;;;;;1.50;1.40;;;26.40;33.50;;;;;;5062372;28;20455;-78
2022/08/08 09:32:36;;;;;;;1.40;1.30;;;26.40;32.30;;;;;;5066880;28;20443;-77
2022/08/08 09:35:07;;;;;;;1.50;1.30;;;26.40;32.20;;;;;;5066891;28;21227;-78
2022/08/08 09:37:44;;;;;;;1.30;1.20;;;26.40;33.10;;;;;;5060741;28;20446;-77
2022/08/08 09:40:28;;;;;;;1.30;1.20;;;26.40;31.30;;;;;;5060881;28;20478;-77
2022/08/08 09:43:19;;;;;;;4.00;1.17;;;26.40;34.00;;;;;;5066518;28;20480;-78
2022/08/08 09:46:09;;;;;;;1.03;1.03;;;26.50;29.60;;;;;;5066221;28;20461;-78
2022/08/08 09:48:54;;;;;;;1.10;1.03;;;26.50;28.30;;;;;;5066884;28;20500;-77
2022/08/08 09:51:31;;;;;;;1.17;1.10;;;26.50;30.90;;;;;;5068155;28;20478;-77
2022/08/08 09:54:22;;;;;;;1.13;1.03;;;26.60;30.20;;;;;;5062083;28;21060;-76
2022/08/08 09:57:08;;;;;;;1.07;1.07;;;26.60;27.90;;;;;;5057077;28;20817;-77
2022/08/08 09:59:48;;;;;;;1.00;0.90;;;26.70;29.30;;;;;;5076093;28;21016;-76
2022/08/08 10:02:38;;;;;;;1.50;1.40;;;26.70;27.20;;;;;;5058008;28;20474;-76
2022/08/08 10:05:11;;;;;;;2.00;1.27;;;26.70;26.60;;;;;;5068160;28;20462;-76
2022/08/08 10:07:55;;;;;;;1.10;1.10;;;26.80;27.00;;;;;;5058140;28;20450;-76
2022/08/08 10:10:29;;;;;;;1.17;1.07;;;26.80;27.20;;;;;;5070604;28;20511;-77
2022/08/08 10:13:00;;;;;;;1.70;1.20;;;26.80;28.30;;;;;;5063397;28;20900;-77
2022/08/08 10:15:46;;;;;;;1.10;1.10;;;26.80;28.50;;;;;;5060135;28;20458;-78
2022/08/08 10:18:30;;;;;;;1.63;1.50;;;26.90;31.20;;;;;;5065710;28;20565;-78
2022/08/08 10:21:03;;;;;;;1.77;1.10;;;26.90;31.00;;;;;;5067330;28;20924;-78
2022/08/08 10:23:51;;;;;;;1.70;1.17;;;27.00;32.20;;;;;;5069817;28;20463;-78
2022/08/08 10:26:29;;;;;;;1.27;1.20;;;27.00;32.00;;;;;;5068000;28;20553;-79
2022/08/08 10:29:22;;;;;;;1.30;1.20;;;27.00;33.00;;;;;;5074798;28;20450;-78
2022/08/08 10:34:52;;;;;;;1.53;1.10;;;26.90;33.00;;;;;;5067195;28;20873;-78
2022/08/08 10:37:30;;;;;;;1.63;1.37;;;26.90;32.30;;;;;;5065056;28;20461;-78
2022/08/08 10:40:13;;;;;;;1.43;1.33;;;26.90;32.60;;;;;;5065539;28;20478;-78
2022/08/08 10:42:45;;;;;;;2.57;1.37;;;27.00;32.40;;;;;;5064975;28;20477;-79
2022/08/08 10:45:15;;;;;;;1.57;1.47;;;27.00;39.70;;;;;;5056577;28;21356;-78
2022/08/08 10:47:53;;;;;;;1.80;1.30;;;27.10;37.30;;;;;;5100056;27;20490;-78
2022/08/08 10:50:32;;;;;;;5.70;1.30;;;27.10;34.10;;;;;;5067392;28;21019;-78
2022/08/08 10:53:06;;;;;;;1.20;1.20;;;27.20;34.40;;;;;;5066320;28;20461;-78
2022/08/08 10:55:41;;;;;;;2.33;1.20;;;27.20;34.40;;;;;;5065795;28;20893;-78
2022/08/08 10:58:14;;;;;;;1.27;1.17;;;27.30;36.40;;;;;;5072166;28;20450;-78
2022/08/08 11:00:43;;;;;;;1.50;1.20;;;27.30;36.00;;;;;;5064184;28;20515;-78
2022/08/08 11:03:41;;;;;;;1.33;1.13;;;27.30;34.50;;;;;;5064332;28;20566;-78
2022/08/08 11:06:31;;;;;;;1.13;1.13;;;27.30;34.00;;;;;;5068244;28;20949;-78
2022/08/08 11:09:03;;;;;;;1.37;1.27;;;27.30;32.60;;;;;;5068498;28;20447;-79
2022/08/08 11:11:47;;;;;;;1.47;1.27;;;27.30;32.70;;;;;;5069520;28;20507;-78
2022/08/08 11:14:48;;;;;;;1.40;1.30;;;27.30;34.30;;;;;;5064592;28;21146;-79
2022/08/08 11:17:18;;;;;;;2.10;1.60;;;27.30;32.40;;;;;;5060215;28;20450;-78
2022/08/08 11:20:09;;;;;;;3.73;1.40;;;27.30;31.90;;;;;;5061733;28;20597;-78
2022/08/08 11:22:40;;;;;;;1.40;1.30;;;27.30;31.30;;;;;;5066420;28;20442;-78
2022/08/08 11:25:11;;;;;;;1.43;1.33;;;27.30;33.40;;;;;;5066654;28;20459;-79
2022/08/08 11:27:45;;;;;;;1.30;1.23;;;27.30;35.00;;;;;;5069742;28;20450;-79
2022/08/08 11:30:16;;;;;;;1.30;1.20;;;27.40;32.60;;;;;;5061930;28;20947;-79
2022/08/08 11:32:54;;;;;;;1.07;1.00;;;27.40;33.30;;;;;;5066859;28;20462;-78
2022/08/08 11:35:25;;;;;;;1.30;1.20;;;27.40;33.70;;;;;;5064467;28;20844;-80
2022/08/08 11:38:09;;;;;;;2.77;1.40;;;27.40;31.80;;;;;;5067936;28;20475;-80
2022/08/08 11:40:57;;;;;;;1.10;1.10;;;27.50;30.60;;;;;;5067834;28;20558;-78
2022/08/08 11:43:27;;;;;;;1.20;1.00;;;27.50;32.20;;;;;;5066361;28;20521;-78
2022/08/08 11:46:08;;;;;;;1.20;1.10;;;27.60;34.70;;;;;;5067754;28;20545;-79
2022/08/08 11:48:46;;;;;;;1.50;1.40;;;27.70;36.00;;;;;;5061010;28;20462;-78
2022/08/08 11:51:18;;;;;;;1.30;1.20;;;27.70;35.80;;;;;;5068032;28;20992;-79
2022/08/08 11:53:58;;;;;;;1.20;1.20;;;27.70;35.40;;;;;;5065879;28;21194;-78
2022/08/08 11:56:33;;;;;;;1.43;1.33;;;27.70;34.30;;;;;;5066410;28;20462;-78
2022/08/08 11:59:09;;;;;;;1.50;1.40;;;27.70;34.40;;;;;;5062677;28;20859;-78
2022/08/08 12:01:37;;;;;;;1.10;1.10;;;27.70;33.40;;;;;;5071294;28;20516;-78
2022/08/08 12:04:09;;;;;;;1.60;1.10;;;27.70;35.00;;;;;;5065110;28;20537;-78
2022/08/08 12:06:39;;;;;;;1.23;1.20;;;27.70;35.90;;;;;;5067271;28;20454;-78
2022/08/08 12:09:10;;;;;;;1.63;1.30;;;27.70;35.60;;;;;;5061706;28;20438;-78
2022/08/08 12:11:45;;;;;;;0.90;0.90;;;27.70;34.90;;;;;;5065792;28;20577;-78
2022/08/08 12:14:23;;;;;;;2.93;1.60;;;27.80;35.60;;;;;;5064804;28;20855;-78
2022/08/08 12:16:56;;;;;;;1.80;1.20;;;27.80;33.00;;;;;;5067240;28;20531;-80
2022/08/08 12:19:25;;;;;;;1.27;1.20;;;27.80;34.80;;;;;;5064110;28;20467;-78
2022/08/08 12:22:15;;;;;;;1.57;1.30;;;27.80;31.20;;;;;;5062576;28;20826;-78
2022/08/08 12:24:49;;;;;;;1.33;1.23;;;27.80;31.50;;;;;;5064085;28;20512;-78
2022/08/08 12:27:23;;;;;;;1.57;1.40;;;27.80;32.70;;;;;;5060929;28;20465;-78
2022/08/08 12:29:56;;;;;;;1.13;1.10;;;27.80;32.90;;;;;;5064078;28;20454;-78
2022/08/08 12:32:25;;;;;;;1.40;1.30;;;27.80;31.80;;;;;;5065639;28;20959;-78
2022/08/08 12:35:02;;;;;;;1.53;1.43;;;27.80;29.90;;;;;;5063614;28;20864;-78
2022/08/08 12:37:47;;;;;;;1.37;1.27;;;27.80;32.90;;;;;;5064283;28;20438;-78
2022/08/08 12:40:40;;;;;;;1.40;1.30;;;27.80;30.40;;;;;;5065591;28;21036;-78
2022/08/08 12:43:29;;;;;;;1.67;1.20;;;27.80;30.10;;;;;;5069219;28;20446;-78
2022/08/08 12:46:00;;;;;;;1.60;1.30;;;27.90;30.60;;;;;;5067026;28;20457;-78
2022/08/08 12:48:31;;;;;;;1.80;1.30;;;27.90;32.30;;;;;;5066211;28;20526;-78
2022/08/08 12:51:06;;;;;;;1.23;1.13;;;27.90;33.70;;;;;;5066370;28;20485;-78
2022/08/08 12:53:59;;;;;;;1.40;1.30;;;27.90;32.20;;;;;;5065448;28;20453;-78
2022/08/08 12:56:34;;;;;;;1.40;1.20;;;28.00;34.10;;;;;;5066783;28;20443;-79
2022/08/08 12:59:13;;;;;;;1.60;1.20;;;28.10;35.40;;;;;;5065399;28;20450;-78
2022/08/08 13:01:49;;;;;;;1.60;1.50;;;28.10;34.90;;;;;;5062929;28;20613;-78
2022/08/08 13:04:19;;;;;;;2.80;1.63;;;28.20;33.80;;;;;;5097021;28;20490;-77
2022/08/08 13:06:54;;;;;;;1.80;1.70;;;28.20;33.10;;;;;;5063012;28;20970;-78
2022/08/08 13:09:38;;;;;;;1.20;1.10;;;28.20;33.20;;;;;;5062334;28;20547;-78
2022/08/08 13:12:28;;;;;;;1.13;1.07;;;28.30;35.20;;;;;;5063824;28;20778;-78
2022/08/08 13:15:01;;;;;;;1.20;1.20;;;28.30;34.20;;;;;;5065368;28;21382;-78
2022/08/08 13:17:32;;;;;;;8.60;1.33;;;28.30;32.20;;;;;;5066813;28;20438;-78
2022/08/08 13:20:22;;;;;;;1.30;1.20;;;28.30;30.60;;;;;;5063615;28;20478;-78
2022/08/08 13:22:55;;;;;;;1.30;1.20;;;28.30;32.80;;;;;;5062571;28;20520;-80
2022/08/08 13:25:46;;;;;;;1.00;1.00;;;28.30;31.00;;;;;;5066317;28;20556;-78
2022/08/08 13:28:30;;;;;;;1.17;1.13;;;28.40;31.10;;;;;;5068436;28;20816;-79
2022/08/08 13:31:01;;;;;;;1.97;1.20;;;28.40;29.80;;;;;;5069066;28;20465;-78
2022/08/08 13:33:32;;;;;;;1.20;1.20;;;28.40;31.40;;;;;;5069950;28;20846;-79
2022/08/08 13:36:10;;;;;;;1.90;1.10;;;28.40;31.00;;;;;;5064998;28;20540;-79
2022/08/08 13:38:39;;;;;;;0.93;0.90;;;28.50;32.50;;;;;;5071513;28;20515;-78
2022/08/08 13:41:09;;;;;;;1.00;1.00;;;28.50;34.60;;;;;;5096718;27;20463;-79
2022/08/08 13:43:45;;;;;;;0.93;0.93;;;28.50;32.30;;;;;;5070592;28;20442;-78
2022/08/08 13:46:15;;;;;;;1.00;1.00;;;28.40;30.20;;;;;;5069950;28;20446;-78
2022/08/08 13:48:55;;;;;;;1.10;1.00;;;28.50;30.50;;;;;;5069311;28;20447;-79
2022/08/08 13:52:02;;;;;;;1.10;1.00;;;28.50;31.20;;;;;;5069652;28;20462;-78
2022/08/08 13:54:33;;;;;;;1.30;1.20;;;28.50;31.30;;;;;;5070995;28;20438;-78
2022/08/08 13:57:10;;;;;;;3.23;1.10;;;28.50;31.00;;;;;;5068375;28;21007;-78
2022/08/08 13:59:41;;;;;;;0.97;0.93;;;28.50;30.30;;;;;;5069105;28;20526;-78
2022/08/08 14:02:18;;;;;;;0.90;0.90;;;28.50;30.40;;;;;;5066050;28;20579;-78
2022/08/08 14:04:58;;;;;;;1.20;1.03;;;28.60;32.70;;;;;;5067571;28;20467;-79
2022/08/08 14:07:48;;;;;;;2.17;1.40;;;28.70;32.40;;;;;;5057000;28;20482;-79
2022/08/08 14:10:22;;;;;;;1.20;1.10;;;28.70;32.30;;;;;;5060780;28;20474;-79
2022/08/08 14:13:11;;;;;;;1.87;1.30;;;28.70;32.90;;;;;;5065432;28;20485;-78
2022/08/08 14:16:01;;;;;;;1.67;1.10;;;28.70;34.00;;;;;;5060700;28;20958;-79